Time;durP1;ratioP1;P1;durP2;ratioP2;P2;SDS_P1;SDS_P2;PMS_P1;PMS_P2;Temp;Humidity;BMP_temperature;BMP_pressure;BME280_temperature;BME280_humidity;BME280_pressure;Samples;Min_cycle;Max_cycle;Signal;HPM_P1;HPM_P2
2021/11/03 00:02:02;;;;;;;17.25;11.20;;;;;;;4.12;100.00;100045.97;2611134;36;20052;-68
2021/11/03 00:08:05;;;;;;;17.70;12.23;;;;;;;3.96;100.00;100054.25;2611606;36;20615;-68
2021/11/03 00:10:35;;;;;;;21.38;14.05;;;;;;;3.93;100.00;100042.97;2610900;36;20154;-68
2021/11/03 00:13:25;;;;;;;21.35;14.73;;;;;;;3.85;100.00;100047.03;2610865;36;20041;-68
2021/11/03 00:19:54;;;;;;;21.17;14.25;;;;;;;3.86;100.00;100054.06;2645216;36;20575;-68
2021/11/03 00:56:39;;;;;;;35.22;18.45;;;;;;;3.81;100.00;100047.38;2627420;36;20061;-68
2021/11/03 01:04:57;;;;;;;54.08;27.73;;;;;;;3.92;100.00;100043.94;2611268;36;20616;-68
2021/11/03 01:07:25;;;;;;;58.33;27.58;;;;;;;3.86;100.00;100043.41;2611611;36;20157;-70
2021/11/03 01:13:01;;;;;;;82.93;37.15;;;;;;;4.30;100.00;100056.19;2610555;36;20546;-69
2021/11/03 01:15:32;;;;;;;86.10;39.20;;;;;;;4.38;100.00;100053.81;2612240;36;20411;-68
2021/11/03 01:18:01;;;;;;;126.90;45.20;;;;;;;4.48;100.00;100049.47;2611471;36;20116;-68
2021/11/03 01:21:02;;;;;;;124.05;45.47;;;;;;;4.53;100.00;100049.13;2611130;36;20030;-68
2021/11/03 01:23:34;;;;;;;136.05;47.47;;;;;;;4.60;100.00;100050.34;2611019;36;20249;-68
2021/11/03 01:26:05;;;;;;;136.77;49.40;;;;;;;4.66;100.00;100046.38;2611955;36;20629;-69
2021/11/03 01:29:03;;;;;;;138.45;49.80;;;;;;;4.68;100.00;100055.09;2611354;36;20482;-69
2021/11/03 01:31:35;;;;;;;219.53;58.33;;;;;;;4.70;100.00;100047.84;2611086;36;20041;-69
2021/11/03 01:34:07;;;;;;;171.50;53.45;;;;;;;4.70;100.00;100050.50;2611251;36;20126;-68
2021/11/03 01:37:06;;;;;;;205.57;55.15;;;;;;;4.72;100.00;100045.88;2611827;36;20035;-68
2021/11/03 01:43:00;;;;;;;195.10;55.65;;;;;;;4.69;100.00;100049.63;2628868;36;20031;-68
2021/11/03 01:45:36;;;;;;;141.85;53.40;;;;;;;4.70;100.00;100050.50;2610817;36;20035;-68
2021/11/03 01:48:12;;;;;;;153.57;51.80;;;;;;;4.70;100.00;100045.16;2611247;31;20166;-68
2021/11/03 01:53:39;;;;;;;210.65;58.03;;;;;;;4.59;100.00;100045.97;2611218;36;20422;-68
2021/11/03 01:56:12;;;;;;;160.20;52.63;;;;;;;4.54;100.00;100041.00;2610738;36;20144;-68
2021/11/03 01:59:17;;;;;;;151.77;49.13;;;;;;;4.57;100.00;100037.25;2610455;36;20034;-67
2021/11/03 02:02:06;;;;;;;198.15;56.22;;;;;;;4.54;100.00;100033.00;2611335;36;20778;-68
2021/11/03 02:05:08;;;;;;;181.40;55.03;;;;;;;4.49;100.00;100035.19;2610297;36;20038;-68
2021/11/03 02:08:04;;;;;;;160.20;51.65;;;;;;;4.55;100.00;100039.22;2610851;36;20177;-68
2021/11/03 02:10:36;;;;;;;195.57;52.40;;;;;;;4.49;100.00;100034.31;2611863;36;20126;-69
2021/11/03 02:13:14;;;;;;;184.93;52.70;;;;;;;4.44;100.00;100031.19;2611028;36;20838;-68
2021/11/03 02:19:06;;;;;;;268.98;60.05;;;;;;;4.40;100.00;100038.53;2609078;36;20035;-67
2021/11/03 02:21:53;;;;;;;171.48;52.83;;;;;;;4.43;100.00;100041.00;2611697;36;20065;-68
2021/11/03 02:24:58;;;;;;;137.85;50.40;;;;;;;4.46;100.00;100038.09;2610774;31;20068;-68
2021/11/03 02:28:06;;;;;;;194.27;55.92;;;;;;;4.42;100.00;100038.41;2610427;36;20031;-67
2021/11/03 02:31:09;;;;;;;206.15;56.00;;;;;;;4.43;100.00;100037.47;2610925;36;20027;-68
2021/11/03 02:36:24;;;;;;;168.73;52.08;;;;;;;4.44;100.00;100032.00;2610257;36;20585;-69
2021/11/03 02:38:53;;;;;;;124.32;46.17;;;;;;;4.53;100.00;100036.66;2611061;36;20064;-68
2021/11/03 02:41:38;;;;;;;160.23;50.90;;;;;;;4.54;100.00;100033.00;2611168;31;20145;-68
2021/11/03 02:44:14;;;;;;;228.02;58.95;;;;;;;4.46;100.00;100035.44;2611194;31;20038;-67
2021/11/03 02:46:42;;;;;;;265.15;59.90;;;;;;;4.44;100.00;100029.34;2610803;36;20669;-68
2021/11/03 02:49:48;;;;;;;210.30;55.23;;;;;;;4.40;100.00;100027.88;2611191;36;21517;-68
2021/11/03 02:55:29;;;;;;;269.77;60.08;;;;;;;4.39;100.00;100018.22;2609124;36;20669;-67
2021/11/03 02:58:06;;;;;;;232.70;59.63;;;;;;;4.36;100.00;100011.28;2609250;36;20057;-68
2021/11/03 03:03:33;;;;;;;255.77;60.40;;;;;;;4.36;100.00;100016.63;2610663;36;20526;-68
2021/11/03 03:06:29;;;;;;;264.60;58.83;;;;;;;4.35;100.00;100016.75;2610749;36;20042;-68
2021/11/03 03:09:01;;;;;;;240.93;59.35;;;;;;;4.34;100.00;100009.69;2610658;36;20037;-68
2021/11/03 03:11:41;;;;;;;217.20;56.35;;;;;;;4.36;100.00;100003.31;2610551;31;20133;-68
2021/11/03 03:14:12;;;;;;;220.05;55.63;;;;;;;4.33;100.00;100013.34;2609928;36;20034;-68
2021/11/03 03:16:43;;;;;;;234.50;59.58;;;;;;;4.28;100.00;100011.00;2610618;36;20118;-68
2021/11/03 03:19:12;;;;;;;214.43;57.95;;;;;;;4.34;100.00;100009.69;2610277;36;20054;-68
2021/11/03 03:21:48;;;;;;;199.05;56.83;;;;;;;4.38;100.00;100016.50;2610428;36;20114;-68
2021/11/03 03:24:22;;;;;;;136.10;50.75;;;;;;;4.41;100.00;100010.09;2611089;36;20180;-68
2021/11/03 03:30:04;;;;;;;187.23;51.63;;;;;;;4.40;100.00;100003.91;2610338;36;20027;-68
2021/11/03 03:32:34;;;;;;;337.45;65.47;;;;;;;4.28;100.00;100005.69;2610894;36;20030;-69
2021/11/03 03:35:02;;;;;;;237.32;55.38;;;;;;;4.26;100.00;100004.13;2610715;31;20053;-68
2021/11/03 03:37:31;;;;;;;287.95;56.90;;;;;;;4.23;100.00;99997.22;2610859;36;20092;-68
2021/11/03 03:40:02;;;;;;;350.55;59.58;;;;;;;4.20;100.00;100003.63;2611309;36;20052;-68
2021/11/03 03:42:30;;;;;;;329.73;57.45;;;;;;;4.26;100.00;100007.63;2610952;36;20165;-68
2021/11/03 03:45:11;;;;;;;244.25;52.47;;;;;;;4.11;100.00;100003.44;2611231;36;20616;-67
2021/11/03 03:56:24;;;;;;;334.38;57.53;;;;;;;4.07;100.00;100004.66;2610797;36;20034;-68
2021/11/03 04:02:03;;;;;;;317.13;57.58;;;;;;;4.01;100.00;100003.31;2610799;36;20022;-68
2021/11/03 04:04:49;;;;;;;323.92;60.40;;;;;;;3.99;100.00;100007.88;2611086;36;20694;-68
2021/11/03 04:07:18;;;;;;;335.33;60.88;;;;;;;3.90;100.00;100016.56;2611255;36;20034;-69
2021/11/03 04:09:46;;;;;;;207.82;52.55;;;;;;;3.94;100.00;100034.00;2610029;36;20168;-69
2021/11/03 04:12:17;;;;;;;223.80;53.25;;;;;;;3.97;100.00;100031.97;2610832;36;20554;-67
2021/11/03 04:17:28;;;;;;;231.32;51.33;;;;;;;3.86;100.00;100039.91;2610268;36;20037;-67
2021/11/03 04:20:02;;;;;;;224.10;56.55;;;;;;;3.85;100.00;100049.69;2611113;36;20541;-68
2021/11/03 04:25:44;;;;;;;200.45;54.42;;;;;;;3.70;100.00;100058.81;2611346;36;20594;-68
2021/11/03 04:28:18;;;;;;;116.97;48.95;;;;;;;3.73;100.00;100055.94;2610114;36;20125;-69
2021/11/03 04:30:52;;;;;;;163.23;53.03;;;;;;;3.74;100.00;100057.63;2610279;36;20149;-68
2021/11/03 04:36:00;;;;;;;146.65;51.20;;;;;;;3.63;100.00;100058.41;2610568;36;20211;-68
2021/11/03 04:39:04;;;;;;;129.52;51.28;;;;;;;3.67;100.00;100059.03;2610496;36;20070;-68
2021/11/03 04:49:40;;;;;;;116.47;46.60;;;;;;;3.50;100.00;100069.09;2611260;36;20038;-68
2021/11/03 04:52:11;;;;;;;125.13;50.30;;;;;;;3.49;100.00;100077.19;2611942;31;20442;-69
2021/11/03 04:57:21;;;;;;;120.72;47.83;;;;;;;3.51;100.00;100073.44;2611729;31;20420;-69
2021/11/03 05:00:30;;;;;;;;;;;;;;;;;;;;;
2021/11/03 05:06:03;;;;;;;115.97;46.45;;;;;;;3.48;100.00;100078.16;2610973;36;20030;-68
2021/11/03 05:08:31;;;;;;;118.72;47.08;;;;;;;3.39;100.00;100081.47;2610479;36;20038;-68
2021/11/03 05:11:29;;;;;;;111.53;45.55;;;;;;;3.41;100.00;100090.19;2611691;31;20360;-69
2021/11/03 05:13:58;;;;;;;140.73;50.97;;;;;;;3.45;100.00;100089.84;2610604;36;20036;-68
2021/11/03 05:19:20;;;;;;;168.63;51.97;;;;;;;3.40;100.00;100089.34;2610521;36;20299;-68
2021/11/03 05:21:51;;;;;;;188.68;54.42;;;;;;;3.41;100.00;100100.81;2610711;36;20146;-68
2021/11/03 05:24:19;;;;;;;123.50;48.35;;;;;;;3.57;100.00;100101.41;2611081;36;20042;-67
2021/11/03 05:26:48;;;;;;;144.05;48.65;;;;;;;3.48;100.00;100102.94;2610969;31;20135;-69
2021/11/03 05:29:24;;;;;;;254.57;55.03;;;;;;;3.41;100.00;100106.97;2611534;36;20138;-68
2021/11/03 05:32:13;;;;;;;216.02;52.65;;;;;;;3.43;100.00;100107.75;2610861;36;20046;-69
2021/11/03 05:34:41;;;;;;;252.32;55.95;;;;;;;3.40;100.00;100107.97;2610942;36;20031;-68
2021/11/03 05:39:57;;;;;;;211.00;52.53;;;;;;;3.45;100.00;100108.47;2610911;36;20875;-68
2021/11/03 05:42:40;;;;;;;191.65;51.40;;;;;;;3.48;100.00;100108.25;2611083;36;20100;-68
2021/11/03 05:45:09;;;;;;;179.05;52.15;;;;;;;3.56;100.00;100104.19;2610638;54;20612;-67
2021/11/03 05:47:40;;;;;;;96.55;44.85;;;;;;;3.63;100.00;100108.13;2611754;36;20124;-68
2021/11/03 05:50:16;;;;;;;120.85;47.88;;;;;;;3.61;100.00;100102.06;2610534;36;20066;-68
2021/11/03 05:52:51;;;;;;;167.18;53.22;;;;;;;3.47;100.00;100101.22;2606035;36;20551;-68
2021/11/03 05:55:21;;;;;;;182.27;51.80;;;;;;;3.58;100.00;100092.50;2605702;36;20130;-69
2021/11/03 06:03:41;;;;;;;172.43;52.08;;;;;;;3.59;100.00;100096.84;2601143;36;20049;-68
2021/11/03 06:06:25;;;;;;;185.85;51.97;;;;;;;3.59;100.00;100098.66;2602389;31;20130;-68
2021/11/03 06:12:08;;;;;;;218.07;54.67;;;;;;;3.53;100.00;100099.94;2603358;31;20031;-69
2021/11/03 06:15:09;;;;;;;116.55;45.40;;;;;;;3.73;100.00;100097.66;2602338;36;20034;-68
2021/11/03 06:23:29;;;;;;;216.05;48.30;;;;;;;3.44;100.00;100101.44;2599591;36;20488;-68
2021/11/03 06:26:04;;;;;;;197.63;52.50;;;;;;;3.54;100.00;100104.31;2599279;36;21519;-67
2021/11/03 06:28:33;;;;;;;106.10;46.70;;;;;;;3.69;100.00;100110.34;2601522;36;20613;-68
2021/11/03 06:31:01;;;;;;;115.97;45.88;;;;;;;3.67;100.00;100105.13;2600484;36;20137;-69
2021/11/03 06:33:30;;;;;;;120.80;45.92;;;;;;;3.73;100.00;100111.81;2600165;36;20118;-67
2021/11/03 06:39:12;;;;;;;239.50;52.38;;;;;;;3.59;100.00;100109.28;2616908;36;20037;-67
2021/11/03 06:42:05;;;;;;;164.50;46.97;;;;;;;3.61;100.00;100102.06;2598805;36;20177;-66
2021/11/03 06:45:01;;;;;;;156.75;48.28;;;;;;;3.63;100.00;100105.47;2599537;31;20074;-67
2021/11/03 06:48:06;;;;;;;337.30;57.45;;;;;;;3.59;100.00;100111.94;2601262;36;20080;-67
2021/11/03 06:50:45;;;;;;;127.07;46.10;;;;;;;3.69;100.00;100107.66;2601151;36;20463;-67
2021/11/03 06:58:48;;;;;;;178.85;47.00;;;;;;;3.60;100.00;100105.69;2617463;36;20030;-67
2021/11/03 07:01:16;;;;;;;312.17;59.25;;;;;;;3.60;100.00;100113.66;2600130;36;20060;-67
2021/11/03 07:15:19;;;;;;;219.65;48.20;;;;;;;3.54;100.00;100114.09;2599725;36;21696;-68
2021/11/03 07:17:51;;;;;;;136.27;43.42;;;;;;;3.68;100.00;100113.94;2599909;36;20585;-68
2021/11/03 07:20:20;;;;;;;193.98;47.38;;;;;;;3.57;100.00;100111.22;2601272;36;20061;-68
2021/11/03 07:22:48;;;;;;;181.70;46.55;;;;;;;3.51;100.00;100108.03;2600010;36;20046;-67
2021/11/03 07:25:19;;;;;;;112.78;42.63;;;;;;;3.59;100.00;100125.25;2602172;36;20042;-68
2021/11/03 07:27:50;;;;;;;291.50;53.47;;;;;;;3.50;100.00;100127.63;2603305;31;20038;-67
2021/11/03 07:30:22;;;;;;;99.65;41.42;;;;;;;3.59;100.00;100120.81;2607107;36;20030;-67
2021/11/03 07:32:51;;;;;;;241.50;47.08;;;;;;;3.67;100.00;100122.91;2609315;31;20125;-69
2021/11/03 07:35:19;;;;;;;98.68;40.10;;;;;;;3.69;100.00;100126.31;2610724;36;20133;-67
2021/11/03 07:37:48;;;;;;;114.50;39.75;;;;;;;3.78;100.00;100130.94;2611187;36;20547;-68
2021/11/03 07:40:20;;;;;;;115.30;39.10;;;;;;;3.81;100.00;100128.09;2627981;31;20479;-67
2021/11/03 07:42:50;;;;;;;132.32;40.00;;;;;;;3.70;100.00;100138.66;2611268;36;20031;-67
2021/11/03 07:45:21;;;;;;;129.70;38.63;;;;;;;3.48;100.00;100134.00;2609473;36;20811;-67
2021/11/03 07:47:49;;;;;;;128.40;40.85;;;;;;;3.45;100.00;100132.41;2609738;31;20133;-68
2021/11/03 07:50:21;;;;;;;102.47;38.92;;;;;;;3.47;100.00;100138.47;2603635;36;20042;-67
2021/11/03 07:52:50;;;;;;;103.13;36.45;;;;;;;3.42;100.00;100137.94;2609130;36;20065;-67
2021/11/03 07:55:21;;;;;;;78.90;36.28;;;;;;;3.50;100.00;100138.28;2611713;31;20130;-67
2021/11/03 07:57:50;;;;;;;155.60;41.22;;;;;;;3.51;100.00;100139.13;2610603;36;20169;-67
2021/11/03 08:00:25;;;;;;;146.80;41.37;;;;;;;3.40;100.00;100131.91;2611757;36;20035;-67
2021/11/03 08:02:53;;;;;;;132.35;38.22;;;;;;;3.38;100.00;100139.13;2610986;36;20034;-67
2021/11/03 08:05:27;;;;;;;209.52;43.53;;;;;;;3.38;100.00;100140.94;2611950;36;20165;-68
2021/11/03 08:07:55;;;;;;;110.72;38.67;;;;;;;3.45;100.00;100147.53;2611583;36;20038;-67
2021/11/03 08:10:24;;;;;;;148.07;39.80;;;;;;;3.44;100.00;100145.81;2611468;36;20122;-68
2021/11/03 08:12:55;;;;;;;102.03;37.28;;;;;;;3.47;100.00;100149.09;2611948;36;20031;-67
2021/11/03 08:15:26;;;;;;;95.43;38.50;;;;;;;3.45;100.00;100151.03;2612293;36;20121;-69
2021/11/03 08:17:56;;;;;;;73.50;33.97;;;;;;;3.54;100.00;100146.88;2612043;36;20162;-67
2021/11/03 08:20:29;;;;;;;131.65;39.95;;;;;;;3.53;100.00;100139.00;2612264;36;20038;-67
2021/11/03 08:23:01;;;;;;;86.22;37.60;;;;;;;3.76;100.00;100143.53;2612445;36;20100;-69
2021/11/03 08:25:30;;;;;;;100.05;37.53;;;;;;;3.59;100.00;100138.56;2611482;36;20031;-68
2021/11/03 08:27:58;;;;;;;;;;;;;;;3.98;100.00;100147.31;2611613;36;20130;-67
2021/11/03 08:30:29;;;;;;;95.25;35.70;;;;;;;4.08;100.00;100150.16;2611867;36;20033;-68
2021/11/03 08:33:01;;;;;;;70.38;37.60;;;;;;;4.33;100.00;100146.56;2612084;31;20551;-68
2021/11/03 08:35:33;;;;;;;79.53;37.13;;;;;;;4.37;100.00;100140.88;2611478;31;20157;-67
2021/11/03 08:38:04;;;;;;;92.50;38.92;;;;;;;4.39;100.00;100135.44;2610710;36;20537;-67
2021/11/03 08:40:34;;;;;;;70.18;35.55;;;;;;;4.51;100.00;100133.66;2608854;31;20782;-68
2021/11/03 08:43:12;;;;;;;77.53;37.40;;;;;;;4.67;100.00;100131.53;2610430;36;20073;-67
2021/11/03 08:45:44;;;;;;;107.45;38.42;;;;;;;4.87;100.00;100134.50;2610458;36;20031;-68
2021/11/03 08:48:12;;;;;;;80.30;37.85;;;;;;;4.79;100.00;100135.09;2610164;36;20134;-67
2021/11/03 08:50:43;;;;;;;283.33;91.82;;;;;;;4.94;100.00;100140.22;2610558;36;20559;-67
2021/11/03 08:53:12;;;;;;;357.73;147.60;;;;;;;5.00;100.00;100140.59;2610769;36;20489;-68
2021/11/03 08:55:41;;;;;;;164.50;47.40;;;;;;;4.91;100.00;100136.81;2611160;36;20093;-67
2021/11/03 08:58:12;;;;;;;170.40;40.00;;;;;;;4.76;100.00;100142.50;2611645;36;20604;-68
2021/11/03 09:00:44;;;;;;;156.65;39.65;;;;;;;4.66;100.00;100150.31;2611549;36;20587;-67
2021/11/03 09:03:13;;;;;;;83.65;36.35;;;;;;;4.67;100.00;100160.03;2611415;36;20030;-67
2021/11/03 09:05:42;;;;;;;215.55;43.08;;;;;;;4.78;100.00;100156.53;2612499;31;20627;-67
2021/11/03 09:08:13;;;;;;;102.15;39.75;;;;;;;4.94;100.00;100156.22;2610994;36;20037;-67
2021/11/03 09:10:45;;;;;;;105.20;38.97;;;;;;;5.18;100.00;100162.34;2612049;36;20046;-67
2021/11/03 09:13:15;;;;;;;160.23;43.22;;;;;;;5.41;100.00;100154.38;2612031;36;20077;-68
2021/11/03 09:15:46;;;;;;;;;;;;;;;5.43;100.00;100147.94;2612889;36;20526;-68
2021/11/03 09:18:14;;;;;;;140.65;41.63;;;;;;;5.36;100.00;100156.53;2611238;36;20034;-69
2021/11/03 09:20:43;;;;;;;118.70;41.00;;;;;;;5.49;100.00;100161.75;2608543;31;20512;-68
2021/11/03 09:23:12;;;;;;;114.32;41.22;;;;;;;5.60;100.00;100159.94;2607839;36;20350;-68
2021/11/03 09:25:40;;;;;;;91.03;40.00;;;;;;;5.70;100.00;100164.56;2613009;36;20039;-69
2021/11/03 09:28:10;;;;;;;134.38;40.92;;;;;;;5.54;100.00;100163.09;2613535;36;20546;-68
2021/11/03 09:30:38;;;;;;;;;;;;;;;5.74;100.00;100166.00;2612015;36;20034;-69
2021/11/03 09:33:11;;;;;;;90.90;42.63;;;;;;;5.70;100.00;100170.75;2611370;36;20057;-68
2021/11/03 09:35:42;;;;;;;138.43;45.28;;;;;;;5.59;100.00;100173.41;2612252;36;20034;-69
2021/11/03 09:38:15;;;;;;;99.53;44.83;;;;;;;5.68;100.00;100177.19;2612718;31;20173;-69
2021/11/03 09:40:50;;;;;;;77.07;41.60;;;;;;;5.83;100.00;100173.31;2613132;36;20065;-68
2021/11/03 09:43:28;;;;;;;98.72;42.63;;;;;;;5.81;100.00;100172.56;2612738;36;20085;-67
2021/11/03 09:45:58;;;;;;;76.70;40.97;;;;;;;5.89;100.00;100175.47;2611874;36;20085;-68
2021/11/03 09:48:30;;;;;;;88.38;42.67;;;;;;;5.87;100.00;100176.56;2611356;31;20558;-68
2021/11/03 09:51:01;;;;;;;84.70;39.97;;;;;;;6.03;100.00;100174.38;2611761;36;20166;-68
2021/11/03 09:53:33;;;;;;;75.45;41.72;;;;;;;6.15;100.00;100180.56;2611682;36;20177;-68
2021/11/03 09:56:02;;;;;;;103.82;42.50;;;;;;;5.97;100.00;100183.75;2612717;31;20535;-67
2021/11/03 09:58:56;;;;;;;78.45;41.00;;;;;;;6.31;100.00;100189.03;2612277;36;20117;-69
2021/11/03 10:01:34;;;;;;;115.35;46.92;;;;;;;6.02;100.00;100182.53;2612503;36;20031;-68
2021/11/03 10:04:17;;;;;;;110.72;43.67;;;;;;;5.94;100.00;100183.97;2612597;36;20038;-68
2021/11/03 10:06:50;;;;;;;125.63;44.22;;;;;;;5.91;100.00;100184.22;2612550;36;20076;-68
2021/11/03 10:09:18;;;;;;;116.90;42.60;;;;;;;5.87;100.00;100182.75;2611237;36;20157;-67
2021/11/03 10:12:05;;;;;;;96.40;42.22;;;;;;;6.06;100.00;100186.66;2612684;36;20130;-67
2021/11/03 10:14:33;;;;;;;84.55;41.70;;;;;;;6.35;100.00;100194.16;2612385;36;20589;-68
2021/11/03 10:17:28;;;;;;;71.18;39.72;;;;;;;6.51;100.00;100202.59;2612446;36;20126;-68
2021/11/03 10:19:59;;;;;;;77.75;42.05;;;;;;;6.70;100.00;100201.06;2611560;36;20180;-68
2021/11/03 10:22:42;;;;;;;89.68;42.33;;;;;;;6.58;100.00;100201.13;2611858;36;20245;-68
2021/11/03 10:25:27;;;;;;;79.10;43.65;;;;;;;6.35;100.00;100196.81;2612036;36;20031;-67
2021/11/03 10:27:59;;;;;;;79.85;42.03;;;;;;;6.57;100.00;100202.09;2612408;36;20133;-68
2021/11/03 10:30:35;;;;;;;101.15;47.15;;;;;;;6.65;100.00;100199.66;2612484;36;20496;-69
2021/11/03 10:33:26;;;;;;;94.55;44.20;;;;;;;6.55;100.00;100190.69;2612519;36;20034;-69
2021/11/03 10:44:49;;;;;;;85.68;42.78;;;;;;;6.47;100.00;100193.97;2646247;36;20031;-69
2021/11/03 10:47:26;;;;;;;81.55;41.47;;;;;;;6.90;100.00;100186.88;2611732;36;20078;-68
2021/11/03 10:59:28;;;;;;;75.38;37.85;;;;;;;7.19;100.00;100175.53;2627658;36;20554;-67
2021/11/03 11:02:49;;;;;;;82.07;40.40;;;;;;;7.21;100.00;100178.91;2611954;36;20161;-68
2021/11/03 11:05:26;;;;;;;70.65;37.92;;;;;;;7.24;100.00;100180.50;2610664;36;20034;-67
2021/11/03 11:08:10;;;;;;;73.75;37.80;;;;;;;6.98;100.00;100173.72;2607082;36;20057;-68
2021/11/03 11:10:45;;;;;;;78.38;41.40;;;;;;;6.87;100.00;100171.09;2609040;36;20058;-68
2021/11/03 11:16:08;;;;;;;84.45;40.40;;;;;;;6.93;100.00;100175.91;2609327;36;20041;-68
2021/11/03 11:18:57;;;;;;;72.40;39.15;;;;;;;7.08;100.00;100172.94;2609429;36;20037;-68
2021/11/03 11:24:30;;;;;;;67.13;36.97;;;;;;;7.11;100.00;100167.31;2628747;36;20030;-68
2021/11/03 11:27:24;;;;;;;62.38;35.78;;;;;;;7.12;100.00;100163.66;2611885;36;20118;-68
2021/11/03 11:33:27;;;;;;;65.68;37.53;;;;;;;7.16;100.00;100157.91;2627422;36;20455;-68
2021/11/03 11:36:18;;;;;;;61.95;37.28;;;;;;;7.12;100.00;100158.31;2609062;36;20031;-67
2021/11/03 11:41:55;;;;;;;71.20;37.37;;;;;;;7.26;100.00;100152.63;2609235;36;20438;-68
2021/11/03 11:44:30;;;;;;;62.60;36.95;;;;;;;7.52;100.00;100149.50;2611048;31;20042;-69
2021/11/03 11:47:02;;;;;;;62.30;36.67;;;;;;;7.63;100.00;100157.47;2610441;36;20519;-67
2021/11/03 11:49:36;;;;;;;69.97;38.08;;;;;;;7.22;100.00;100159.22;2610020;36;20053;-67
2021/11/03 11:55:36;;;;;;;76.25;39.50;;;;;;;7.14;100.00;100159.00;2609867;31;20625;-67
2021/11/03 11:58:28;;;;;;;73.90;39.08;;;;;;;7.72;100.00;100158.47;2608930;36;20084;-68
2021/11/03 12:04:39;;;;;;;71.97;38.60;;;;;;;7.80;100.00;100149.75;2608718;36;20419;-68
2021/11/03 12:07:37;;;;;;;77.18;42.08;;;;;;;7.63;100.00;100141.38;2610866;36;20559;-68
2021/11/03 12:10:28;;;;;;;80.70;41.60;;;;;;;7.82;100.00;100145.13;2609616;36;20057;-68
2021/11/03 12:13:27;;;;;;;78.45;43.00;;;;;;;7.83;100.00;100146.81;2611562;36;20140;-70
2021/11/03 12:16:21;;;;;;;73.20;40.92;;;;;;;7.86;100.00;100149.22;2611896;36;20035;-67
2021/11/03 12:18:57;;;;;;;73.88;40.50;;;;;;;7.86;100.00;100144.72;2611840;36;20035;-68
2021/11/03 12:21:41;;;;;;;77.47;41.40;;;;;;;8.01;100.00;100145.19;2611667;36;20511;-68
2021/11/03 12:24:52;;;;;;;66.72;39.63;;;;;;;8.03;100.00;100143.19;2611064;36;20126;-68
2021/11/03 12:27:38;;;;;;;79.25;40.50;;;;;;;7.77;100.00;100136.63;2610625;36;20137;-68
2021/11/03 12:30:45;;;;;;;70.07;41.08;;;;;;;7.77;100.00;100148.19;2611478;36;20038;-68
2021/11/03 12:33:30;;;;;;;73.75;40.88;;;;;;;7.94;100.00;100132.47;2610948;36;20038;-68
2021/11/03 12:36:13;;;;;;;68.72;39.13;;;;;;;7.60;100.00;100141.66;2611528;36;20030;-68
2021/11/03 12:38:55;;;;;;;73.28;39.60;;;;;;;7.94;100.00;100133.31;2611523;31;20122;-70
2021/11/03 12:41:32;;;;;;;68.50;39.85;;;;;;;7.91;100.00;100138.94;2610985;36;20574;-68
2021/11/03 12:44:04;;;;;;;67.43;38.88;;;;;;;7.79;100.00;100140.88;2611295;36;20456;-70
2021/11/03 12:46:34;;;;;;;69.78;38.20;;;;;;;7.85;100.00;100134.97;2611715;36;20031;-68
2021/11/03 12:49:03;;;;;;;65.93;38.70;;;;;;;8.17;100.00;100138.44;2611574;36;20031;-69
2021/11/03 12:51:35;;;;;;;60.22;37.55;;;;;;;8.29;100.00;100134.66;2611849;36;20031;-68
2021/11/03 12:54:15;;;;;;;62.13;37.05;;;;;;;8.31;100.00;100130.00;2610646;36;20034;-70
2021/11/03 12:56:56;;;;;;;56.83;36.38;;;;;;;8.01;100.00;100131.78;2609159;36;20531;-70
2021/11/03 12:59:28;;;;;;;59.08;36.10;;;;;;;8.21;100.00;100127.28;2610641;36;20031;-68
2021/11/03 13:01:59;;;;;;;62.13;36.90;;;;;;;8.09;100.00;100133.75;2611832;36;20053;-68
2021/11/03 13:04:32;;;;;;;66.47;37.38;;;;;;;7.85;100.00;100134.97;2611791;36;20262;-68
2021/11/03 13:07:17;;;;;;;68.43;39.88;;;;;;;7.96;100.00;100131.34;2612748;36;20038;-68
2021/11/03 13:09:48;;;;;;;68.72;39.80;;;;;;;7.75;100.00;100123.38;2612331;36;20430;-68
2021/11/03 13:12:26;;;;;;;68.82;39.25;;;;;;;7.92;100.00;100121.91;2612231;31;20030;-68
2021/11/03 13:14:57;;;;;;;77.07;40.85;;;;;;;7.81;100.00;100122.00;2611886;36;20034;-68
2021/11/03 13:17:48;;;;;;;76.32;41.55;;;;;;;7.77;100.00;100134.78;2612341;36;20034;-68
2021/11/03 13:23:16;;;;;;;79.35;43.78;;;;;;;7.79;100.00;100126.63;2612226;36;20034;-68
2021/11/03 13:25:50;;;;;;;77.53;43.72;;;;;;;7.78;100.00;100123.09;2612174;36;20034;-68
2021/11/03 13:28:26;;;;;;;80.40;43.78;;;;;;;7.89;100.00;100130.19;2612296;36;20491;-68
2021/11/03 13:31:27;;;;;;;71.47;39.78;;;;;;;7.93;100.00;100126.25;2612909;36;20627;-69
2021/11/03 13:34:10;;;;;;;81.97;43.17;;;;;;;7.99;100.00;100125.69;2612585;36;20057;-67
2021/11/03 13:36:44;;;;;;;86.57;47.90;;;;;;;7.95;100.00;100135.03;2612290;31;20035;-68
2021/11/03 13:39:26;;;;;;;73.10;42.78;;;;;;;7.94;100.00;100133.31;2611403;36;20574;-69
2021/11/03 13:41:58;;;;;;;75.60;42.67;;;;;;;7.72;100.00;100142.41;2612100;36;20060;-68
2021/11/03 13:50:29;;;;;;;73.95;42.00;;;;;;;7.68;100.00;100144.50;2609729;36;20625;-68
2021/11/03 14:08:03;;;;;;;67.90;39.38;;;;;;;7.98;100.00;100150.81;2615315;46;20031;-68
2021/11/03 14:13:28;;;;;;;;;;;;;;;;;;;;;
2021/11/03 14:24:57;;;;;;;64.22;37.38;;;;;;;7.86;100.00;100157.25;2610029;36;20031;-68
2021/11/03 14:27:40;;;;;;;;;;;;;;;7.89;100.00;100162.34;2610388;36;20149;-68
2021/11/03 14:30:38;;;;;;;64.97;37.33;;;;;;;7.77;100.00;100155.38;2611922;31;19996;-69
2021/11/03 14:45:23;;;;;;;64.28;36.58;;;;;;;7.81;100.00;100146.09;2612162;36;20553;-68
2021/11/03 14:54:24;;;;;;;58.80;34.67;;;;;;;7.80;100.00;100149.75;2608628;36;20038;-70
2021/11/03 14:57:13;;;;;;;59.90;34.00;;;;;;;7.76;100.00;100151.00;2610286;36;21233;-68
2021/11/03 14:59:41;;;;;;;;;;;;;;;7.82;100.00;100150.50;2610135;36;20463;-68
2021/11/03 15:02:24;;;;;;;62.60;33.30;;;;;;;7.63;100.00;100157.47;2609345;36;19946;-69
2021/11/03 15:08:06;;;;;;;51.63;31.25;;;;;;;7.65;100.00;100155.47;2611401;36;20037;-68
2021/11/03 15:11:00;;;;;;;56.90;33.05;;;;;;;7.44;100.00;100162.72;2611230;36;20149;-69
2021/11/03 15:19:32;;;;;;;60.80;33.05;;;;;;;7.37;100.00;100168.59;2628763;36;20041;-68
2021/11/03 15:22:07;;;;;;;57.75;32.80;;;;;;;7.07;100.00;100176.59;2611142;36;20057;-70
2021/11/03 15:24:57;;;;;;;57.35;32.75;;;;;;;7.23;100.00;100176.13;2612395;36;20030;-68
2021/11/03 15:27:49;;;;;;;62.83;34.33;;;;;;;7.07;100.00;100182.78;2612823;36;20112;-70
2021/11/03 15:33:03;;;;;;;67.03;35.85;;;;;;;7.05;100.00;100194.59;2610704;36;20030;-69
2021/11/03 15:36:03;;;;;;;64.95;34.13;;;;;;;7.00;100.00;100197.66;2611798;36;20110;-69
2021/11/03 15:41:47;;;;;;;61.00;31.95;;;;;;;6.92;100.00;100190.28;2611071;36;20026;-70
2021/11/03 15:47:43;;;;;;;62.08;31.13;;;;;;;6.95;100.00;100179.31;2610772;36;20045;-68
2021/11/03 15:50:29;;;;;;;63.42;32.65;;;;;;;6.94;100.00;100172.28;2611301;36;20535;-69
2021/11/03 15:55:50;;;;;;;62.67;30.17;;;;;;;6.83;100.00;100186.56;2609053;36;20030;-69
2021/11/03 15:58:22;;;;;;;65.40;33.50;;;;;;;6.68;100.00;100181.63;2610824;36;20588;-68
2021/11/03 16:00:58;;;;;;;68.25;33.10;;;;;;;6.65;100.00;100182.72;2610536;36;20050;-69
2021/11/03 16:03:35;;;;;;;69.82;34.50;;;;;;;6.70;100.00;100187.69;2610012;36;20138;-68
2021/11/03 16:06:03;;;;;;;70.40;33.90;;;;;;;6.79;100.00;100192.28;2611431;36;20034;-68
2021/11/03 16:08:32;;;;;;;78.55;35.70;;;;;;;6.72;100.00;100193.78;2611112;36;20478;-68
2021/11/03 16:11:00;;;;;;;70.97;33.63;;;;;;;6.59;100.00;100197.44;2611252;36;20193;-70
2021/11/03 16:14:00;;;;;;;62.63;32.22;;;;;;;6.65;100.00;100202.31;2610882;36;20664;-69